Air Resources Laboratory banner image
Air Resources Laboratory web site National Oceanic and Atmospheric Administration (NOAA)

ri metar


KBID 110556Z AUTO 00000KT 10SM OVC023 21/20 A3000 RMK AO2 SLP158 T02110200
 10217 20211 58004=
KPVD 110551Z 22006KT 10SM BKN023 BKN050 22/20 A2999 RMK AO2 SLP154 T02170200
 10233 20217 58007=
KSFZ 110556Z AUTO 00000KT 10SM FEW007 OVC055 20/19 A3000 RMK AO2 SLP155 60000
 T02000194 10222 20200 58007 $=
KUUU 110553Z AUTO 16004KT 10SM OVC021 21/20 A2999 RMK AO2 SLP152 T02060200
 10217 20200 58005=
KWST 110553Z AUTO 00000KT 10SM BKN026 OVC070 22/21 A2999 RMK AO2 SLP153
 T02170206 10228 20217 58005=